This is the latest recevied weather packets stored in our database for station/object WX4HP-13. If no packets are shown the sender has not sent any weather packets the latest 10 day(s).
| Time | Temp. | Humidity | Pressure | Rain* | Wind** | Luminosity | Snow |
|---|---|---|---|---|---|---|---|
| 1778097595 | -17.78° C | 100% | 0 hPa | 0 mm | - | - | - |
| 1778097296 | 24.44° C | 77% | 1010.6 hPa | 0 mm | - | - | - |
| 1778096997 | 24.44° C | 76% | 1010.6 hPa | 0 mm | - | - | - |
| 1778096696 | 24.44° C | 76% | 1010.7 hPa | 0 mm | - | - | - |
| 1778096396 | 24.44° C | 77% | 1010.8 hPa | 0 mm | - | - | - |
| 1778096096 | 23.89° C | 76% | 1011 hPa | 0 mm | - | - | - |
| 1778095797 | 23.89° C | 76% | 1011.1 hPa | 0 mm | - | - | - |
| 1778095497 | 24.44° C | 75% | 1011.1 hPa | 0 mm | - | - | - |
| 1778095196 | 25° C | 73% | 1011.1 hPa | 0 mm | - | - | - |
| 1778094896 | 25° C | 73% | 1011.1 hPa | 0 mm | - | - | - |
| 1778094596 | 25° C | 73% | 1011.2 hPa | 0 mm | - | - | - |
| 1778094296 | 25° C | 73% | 1011.2 hPa | 0 mm | - | - | - |
| 1778093997 | 24.44° C | 76% | 1011.3 hPa | 0 mm | - | - | - |
| 1778093696 | 23.89° C | 77% | 1011.5 hPa | 0 mm | - | - | - |
| 1778093396 | 23.89° C | 76% | 1011.6 hPa | 0 mm | - | - | - |
| 1778093096 | 24.44° C | 75% | 1011.5 hPa | 0 mm | - | - | - |
| 1778092496 | 24.44° C | 75% | 1011.7 hPa | 0 mm | - | - | - |
| 1778092196 | 23.89° C | 76% | 1011.8 hPa | 0 mm | - | - | - |
| 1778091896 | 24.44° C | 75% | 1011.7 hPa | 0 mm | - | - | - |
| 1778091596 | 23.89° C | 75% | 1011.6 hPa | 0 mm | - | - | - |
| 1778091296 | 23.89° C | 75% | 1011.6 hPa | 0 mm | - | - | - |
| 1778090996 | 24.44° C | 75% | 1011.6 hPa | 0 mm | - | - | - |
| 1778090696 | 23.33° C | 78% | 1011.8 hPa | 0 mm | - | - | - |
| 1778090397 | 22.78° C | 78% | 1011.9 hPa | 0 mm | - | - | - |
| 1778090096 | 22.78° C | 79% | 1012 hPa | 0 mm | - | - | - |
* Rain latest hour (hover to see other rain measurements)
** Current wind speed in m/s (hover to see current wind gust speed)